sensor_id;sensor_type;location;lat;lon;timestamp;P1;durP1;ratioP1;P2;durP2;ratioP2
62256;SDS011;48240;52.962;5.790;2022-10-16T04:33:37;2.92;;;0.80;;
62256;SDS011;48240;52.962;5.790;2022-10-16T04:36:03;1.52;;;0.70;;
62256;SDS011;48240;52.962;5.790;2022-10-16T04:38:30;2.55;;;0.80;;
62256;SDS011;48240;52.962;5.790;2022-10-16T04:40:56;3.33;;;0.70;;
62256;SDS011;48240;52.962;5.790;2022-10-16T04:43:22;1.75;;;0.80;;
62256;SDS011;48240;52.962;5.790;2022-10-16T04:45:48;2.45;;;0.80;;
62256;SDS011;48240;52.962;5.790;2022-10-16T04:48:16;1.40;;;0.80;;
62256;SDS011;48240;52.962;5.790;2022-10-16T04:50:42;2.35;;;0.80;;
62256;SDS011;48240;52.962;5.790;2022-10-16T04:53:08;3.45;;;1.27;;
62256;SDS011;48240;52.962;5.790;2022-10-16T04:55:34;3.30;;;0.90;;
62256;SDS011;48240;52.962;5.790;2022-10-16T04:58:00;2.03;;;0.57;;
62256;SDS011;48240;52.962;5.790;2022-10-16T05:00:26;3.22;;;0.90;;
62256;SDS011;48240;52.962;5.790;2022-10-16T05:02:52;3.40;;;0.80;;
62256;SDS011;48240;52.962;5.790;2022-10-16T05:05:18;2.17;;;0.80;;
62256;SDS011;48240;52.962;5.790;2022-10-16T05:07:45;1.90;;;0.80;;
62256;SDS011;48240;52.962;5.790;2022-10-16T05:10:11;1.60;;;0.70;;
62256;SDS011;48240;52.962;5.790;2022-10-16T05:12:37;1.80;;;0.88;;
62256;SDS011;48240;52.962;5.790;2022-10-16T05:15:03;1.50;;;0.80;;
62256;SDS011;48240;52.962;5.790;2022-10-16T05:17:29;2.22;;;0.80;;
62256;SDS011;48240;52.962;5.790;2022-10-16T05:19:55;2.00;;;0.80;;
62256;SDS011;48240;52.962;5.790;2022-10-16T05:22:21;2.15;;;0.85;;
62256;SDS011;48240;52.962;5.790;2022-10-16T05:24:47;3.03;;;1.05;;
62256;SDS011;48240;52.962;5.790;2022-10-16T05:27:14;2.53;;;0.90;;
62256;SDS011;48240;52.962;5.790;2022-10-16T05:29:44;2.03;;;0.68;;
62256;SDS011;48240;52.962;5.790;2022-10-16T05:32:11;3.28;;;0.63;;
62256;SDS011;48240;52.962;5.790;2022-10-16T05:34:37;1.80;;;0.90;;
62256;SDS011;48240;52.962;5.790;2022-10-16T05:37:03;2.05;;;0.70;;
62256;SDS011;48240;52.962;5.790;2022-10-16T05:39:29;3.58;;;0.88;;
62256;SDS011;48240;52.962;5.790;2022-10-16T05:41:56;3.05;;;0.93;;
62256;SDS011;48240;52.962;5.790;2022-10-16T05:44:22;2.78;;;0.93;;
62256;SDS011;48240;52.962;5.790;2022-10-16T05:46:48;3.30;;;0.82;;
62256;SDS011;48240;52.962;5.790;2022-10-16T05:49:14;2.30;;;1.00;;
62256;SDS011;48240;52.962;5.790;2022-10-16T05:51:40;3.90;;;0.98;;
62256;SDS011;48240;52.962;5.790;2022-10-16T05:54:07;2.33;;;0.88;;
62256;SDS011;48240;52.962;5.790;2022-10-16T05:56:33;3.97;;;1.30;;
62256;SDS011;48240;52.962;5.790;2022-10-16T05:58:59;4.93;;;1.10;;
62256;SDS011;48240;52.962;5.790;2022-10-16T06:01:25;1.65;;;0.68;;
62256;SDS011;48240;52.962;5.790;2022-10-16T06:03:51;4.10;;;0.90;;
62256;SDS011;48240;52.962;5.790;2022-10-16T06:06:18;3.10;;;0.90;;
62256;SDS011;48240;52.962;5.790;2022-10-16T06:08:45;2.17;;;1.00;;
62256;SDS011;48240;52.962;5.790;2022-10-16T06:11:13;6.38;;;1.10;;
62256;SDS011;48240;52.962;5.790;2022-10-16T06:13:40;1.88;;;0.88;;
62256;SDS011;48240;52.962;5.790;2022-10-16T06:16:11;3.80;;;1.00;;
62256;SDS011;48240;52.962;5.790;2022-10-16T06:18:37;2.80;;;0.80;;
62256;SDS011;48240;52.962;5.790;2022-10-16T06:21:07;3.45;;;1.00;;
62256;SDS011;48240;52.962;5.790;2022-10-16T06:23:33;16.20;;;1.50;;
62256;SDS011;48240;52.962;5.790;2022-10-16T06:26:10;5.40;;;1.38;;
62256;SDS011;48240;52.962;5.790;2022-10-16T06:28:36;5.70;;;1.50;;
62256;SDS011;48240;52.962;5.790;2022-10-16T06:31:03;3.33;;;1.30;;
62256;SDS011;48240;52.962;5.790;2022-10-16T06:33:29;5.32;;;1.25;;
62256;SDS011;48240;52.962;5.790;2022-10-16T06:36:05;4.55;;;1.35;;
62256;SDS011;48240;52.962;5.790;2022-10-16T06:38:34;3.42;;;1.08;;
62256;SDS011;48240;52.962;5.790;2022-10-16T06:41:00;4.60;;;1.42;;
62256;SDS011;48240;52.962;5.790;2022-10-16T06:43:28;3.38;;;1.20;;
62256;SDS011;48240;52.962;5.790;2022-10-16T06:45:57;6.32;;;1.08;;
62256;SDS011;48240;52.962;5.790;2022-10-16T06:48:23;2.42;;;1.00;;
62256;SDS011;48240;52.962;5.790;2022-10-16T06:51:06;7.53;;;1.20;;
62256;SDS011;48240;52.962;5.790;2022-10-16T06:53:33;12.23;;;1.40;;
62256;SDS011;48240;52.962;5.790;2022-10-16T06:56:16;8.77;;;1.30;;
62256;SDS011;48240;52.962;5.790;2022-10-16T06:58:42;6.32;;;1.35;;
62256;SDS011;48240;52.962;5.790;2022-10-16T07:01:09;4.75;;;1.10;;
62256;SDS011;48240;52.962;5.790;2022-10-16T07:03:36;6.30;;;1.33;;
62256;SDS011;48240;52.962;5.790;2022-10-16T07:06:03;4.22;;;0.98;;
62256;SDS011;48240;52.962;5.790;2022-10-16T07:08:33;18.80;;;9.65;;
62256;SDS011;48240;52.962;5.790;2022-10-16T07:11:00;52.17;;;26.70;;
62256;SDS011;48240;52.962;5.790;2022-10-16T07:13:26;48.33;;;24.95;;
62256;SDS011;48240;52.962;5.790;2022-10-16T07:15:53;32.90;;;16.58;;
62256;SDS011;48240;52.962;5.790;2022-10-16T07:18:19;20.60;;;11.32;;
62256;SDS011;48240;52.962;5.790;2022-10-16T07:20:45;33.20;;;21.45;;
62256;SDS011;48240;52.962;5.790;2022-10-16T07:23:11;31.20;;;16.90;;
62256;SDS011;48240;52.962;5.790;2022-10-16T07:25:37;36.13;;;19.70;;
62256;SDS011;48240;52.962;5.790;2022-10-16T07:28:03;29.52;;;18.55;;
62256;SDS011;48240;52.962;5.790;2022-10-16T07:30:29;38.72;;;19.30;;
62256;SDS011;48240;52.962;5.790;2022-10-16T07:32:55;43.22;;;24.63;;
62256;SDS011;48240;52.962;5.790;2022-10-16T07:35:22;53.28;;;29.55;;
62256;SDS011;48240;52.962;5.790;2022-10-16T07:37:48;55.33;;;31.73;;
62256;SDS011;48240;52.962;5.790;2022-10-16T07:40:14;52.03;;;31.02;;
62256;SDS011;48240;52.962;5.790;2022-10-16T07:42:40;50.83;;;29.70;;
62256;SDS011;48240;52.962;5.790;2022-10-16T07:45:06;56.92;;;31.33;;
62256;SDS011;48240;52.962;5.790;2022-10-16T07:47:32;58.05;;;33.67;;
62256;SDS011;48240;52.962;5.790;2022-10-16T07:49:58;70.65;;;40.90;;
62256;SDS011;48240;52.962;5.790;2022-10-16T07:52:24;54.53;;;36.92;;
62256;SDS011;48240;52.962;5.790;2022-10-16T07:54:50;66.22;;;40.72;;
62256;SDS011;48240;52.962;5.790;2022-10-16T07:57:16;66.65;;;37.25;;
62256;SDS011;48240;52.962;5.790;2022-10-16T07:59:45;70.65;;;43.30;;
62256;SDS011;48240;52.962;5.790;2022-10-16T08:02:11;73.82;;;43.95;;
62256;SDS011;48240;52.962;5.790;2022-10-16T08:04:37;71.45;;;42.08;;
62256;SDS011;48240;52.962;5.790;2022-10-16T08:07:03;64.13;;;40.05;;
62256;SDS011;48240;52.962;5.790;2022-10-16T08:09:29;68.63;;;40.75;;
62256;SDS011;48240;52.962;5.790;2022-10-16T08:11:55;94.82;;;42.40;;
62256;SDS011;48240;52.962;5.790;2022-10-16T08:14:22;78.88;;;37.78;;
62256;SDS011;48240;52.962;5.790;2022-10-16T08:16:48;74.88;;;38.40;;
62256;SDS011;48240;52.962;5.790;2022-10-16T08:19:14;68.65;;;37.90;;
62256;SDS011;48240;52.962;5.790;2022-10-16T08:21:40;83.35;;;38.72;;
62256;SDS011;48240;52.962;5.790;2022-10-16T08:24:06;65.07;;;36.67;;
62256;SDS011;48240;52.962;5.790;2022-10-16T08:26:33;63.85;;;33.03;;
62256;SDS011;48240;52.962;5.790;2022-10-16T08:28:59;65.78;;;33.67;;
62256;SDS011;48240;52.962;5.790;2022-10-16T08:31:25;74.57;;;33.28;;
62256;SDS011;48240;52.962;5.790;2022-10-16T08:33:52;58.33;;;31.20;;
62256;SDS011;48240;52.962;5.790;2022-10-16T08:36:18;54.45;;;30.80;;
62256;SDS011;48240;52.962;5.790;2022-10-16T08:38:47;57.88;;;30.15;;
62256;SDS011;48240;52.962;5.790;2022-10-16T08:46:52;53.15;;;28.35;;
62256;SDS011;48240;52.962;5.790;2022-10-16T08:49:26;53.97;;;29.73;;
62256;SDS011;48240;52.962;5.790;2022-10-16T08:51:52;48.80;;;27.30;;
62256;SDS011;48240;52.962;5.790;2022-10-16T08:54:21;52.55;;;27.08;;
62256;SDS011;48240;52.962;5.790;2022-10-16T08:56:48;60.55;;;28.60;;
62256;SDS011;48240;52.962;5.790;2022-10-16T08:59:15;61.55;;;27.10;;
62256;SDS011;48240;52.962;5.790;2022-10-16T09:01:44;59.92;;;25.58;;
62256;SDS011;48240;52.962;5.790;2022-10-16T09:07:01;61.58;;;23.95;;
62256;SDS011;48240;52.962;5.790;2022-10-16T09:19:44;58.80;;;21.65;;
62256;SDS011;48240;52.962;5.790;2022-10-16T09:22:15;60.45;;;22.45;;
62256;SDS011;48240;52.962;5.790;2022-10-16T09:24:42;48.83;;;21.17;;
62256;SDS011;48240;52.962;5.790;2022-10-16T09:27:11;55.90;;;22.10;;
62256;SDS011;48240;52.962;5.790;2022-10-16T09:29:37;49.47;;;19.92;;
62256;SDS011;48240;52.962;5.790;2022-10-16T09:32:09;57.65;;;21.10;;
62256;SDS011;48240;52.962;5.790;2022-10-16T09:34:37;57.20;;;19.60;;
62256;SDS011;48240;52.962;5.790;2022-10-16T09:37:08;58.53;;;18.38;;
62256;SDS011;48240;52.962;5.790;2022-10-16T09:39:48;53.08;;;17.95;;
62256;SDS011;48240;52.962;5.790;2022-10-16T09:42:18;48.97;;;16.48;;
62256;SDS011;48240;52.962;5.790;2022-10-16T09:44:47;42.10;;;16.05;;
62256;SDS011;48240;52.962;5.790;2022-10-16T09:47:21;32.38;;;15.23;;
62256;SDS011;48240;52.962;5.790;2022-10-16T09:49:54;34.33;;;12.45;;
62256;SDS011;48240;52.962;5.790;2022-10-16T09:52:22;37.45;;;13.60;;
62256;SDS011;48240;52.962;5.790;2022-10-16T09:54:52;34.53;;;12.40;;
62256;SDS011;48240;52.962;5.790;2022-10-16T09:57:19;27.75;;;12.13;;
62256;SDS011;48240;52.962;5.790;2022-10-16T09:59:49;27.65;;;12.05;;
62256;SDS011;48240;52.962;5.790;2022-10-16T10:02:16;22.70;;;10.60;;
62256;SDS011;48240;52.962;5.790;2022-10-16T10:05:01;32.22;;;11.43;;
62256;SDS011;48240;52.962;5.790;2022-10-16T10:07:28;26.25;;;10.35;;
62256;SDS011;48240;52.962;5.790;2022-10-16T10:09:59;27.77;;;9.52;;
62256;SDS011;48240;52.962;5.790;2022-10-16T10:12:27;22.05;;;10.10;;
62256;SDS011;48240;52.962;5.790;2022-10-16T10:15:04;23.63;;;9.30;;
62256;SDS011;48240;52.962;5.790;2022-10-16T10:17:30;25.52;;;8.52;;
62256;SDS011;48240;52.962;5.790;2022-10-16T10:22:28;19.10;;;7.43;;
62256;SDS011;48240;52.962;5.790;2022-10-16T10:25:43;14.45;;;6.57;;
62256;SDS011;48240;52.962;5.790;2022-10-16T10:30:33;16.25;;;5.68;;
62256;SDS011;48240;52.962;5.790;2022-10-16T10:38:30;16.02;;;4.93;;
62256;SDS011;48240;52.962;5.790;2022-10-16T10:46:44;10.55;;;4.40;;
62256;SDS011;48240;52.962;5.790;2022-10-16T10:49:10;12.70;;;4.97;;
62256;SDS011;48240;52.962;5.790;2022-10-16T10:56:57;13.07;;;3.90;;
62256;SDS011;48240;52.962;5.790;2022-10-16T11:01:50;13.30;;;3.58;;
62256;SDS011;48240;52.962;5.790;2022-10-16T11:06:50;8.52;;;3.58;;
62256;SDS011;48240;52.962;5.790;2022-10-16T11:09:19;10.52;;;3.53;;
62256;SDS011;48240;52.962;5.790;2022-10-16T11:11:48;10.68;;;3.42;;
62256;SDS011;48240;52.962;5.790;2022-10-16T11:14:19;12.52;;;3.28;;
62256;SDS011;48240;52.962;5.790;2022-10-16T11:16:51;13.52;;;3.78;;
62256;SDS011;48240;52.962;5.790;2022-10-16T11:19:41;8.55;;;3.25;;
62256;SDS011;48240;52.962;5.790;2022-10-16T11:27:08;12.68;;;2.88;;
62256;SDS011;48240;52.962;5.790;2022-10-16T11:29:35;9.60;;;2.60;;
62256;SDS011;48240;52.962;5.790;2022-10-16T11:32:05;10.05;;;3.17;;
62256;SDS011;48240;52.962;5.790;2022-10-16T11:34:36;8.25;;;2.70;;
62256;SDS011;48240;52.962;5.790;2022-10-16T11:37:17;8.23;;;3.30;;
62256;SDS011;48240;52.962;5.790;2022-10-16T11:39:44;8.93;;;2.97;;
62256;SDS011;48240;52.962;5.790;2022-10-16T11:42:22;11.43;;;2.95;;
62256;SDS011;48240;52.962;5.790;2022-10-16T11:44:57;10.50;;;3.15;;
62256;SDS011;48240;52.962;5.790;2022-10-16T11:50:09;10.45;;;2.47;;
62256;SDS011;48240;52.962;5.790;2022-10-16T11:52:37;10.00;;;2.33;;
62256;SDS011;48240;52.962;5.790;2022-10-16T11:57:35;10.77;;;3.00;;
62256;SDS011;48240;52.962;5.790;2022-10-16T12:00:05;8.98;;;2.40;;
62256;SDS011;48240;52.962;5.790;2022-10-16T12:10:25;9.40;;;2.67;;
62256;SDS011;48240;52.962;5.790;2022-10-16T12:12:51;8.32;;;2.42;;
62256;SDS011;48240;52.962;5.790;2022-10-16T12:15:22;12.30;;;2.53;;
62256;SDS011;48240;52.962;5.790;2022-10-16T12:22:41;8.80;;;2.30;;
62256;SDS011;48240;52.962;5.790;2022-10-16T12:30:18;10.10;;;2.20;;
62256;SDS011;48240;52.962;5.790;2022-10-16T12:32:46;11.18;;;2.10;;
62256;SDS011;48240;52.962;5.790;2022-10-16T12:35:20;7.57;;;2.03;;
62256;SDS011;48240;52.962;5.790;2022-10-16T12:37:47;12.68;;;1.90;;
62256;SDS011;48240;52.962;5.790;2022-10-16T12:40:35;9.45;;;1.88;;
62256;SDS011;48240;52.962;5.790;2022-10-16T12:43:10;13.25;;;2.22;;
62256;SDS011;48240;52.962;5.790;2022-10-16T12:45:37;6.10;;;2.05;;
62256;SDS011;48240;52.962;5.790;2022-10-16T12:48:04;10.50;;;2.50;;
62256;SDS011;48240;52.962;5.790;2022-10-16T12:50:43;6.75;;;2.00;;
62256;SDS011;48240;52.962;5.790;2022-10-16T12:53:43;8.10;;;1.90;;
62256;SDS011;48240;52.962;5.790;2022-10-16T12:58:37;7.25;;;1.60;;
62256;SDS011;48240;52.962;5.790;2022-10-16T13:01:12;8.70;;;1.98;;
62256;SDS011;48240;52.962;5.790;2022-10-16T13:19:48;7.75;;;1.70;;
62256;SDS011;48240;52.962;5.790;2022-10-16T13:22:30;7.43;;;1.58;;
62256;SDS011;48240;52.962;5.790;2022-10-16T13:27:28;7.20;;;1.83;;
62256;SDS011;48240;52.962;5.790;2022-10-16T13:30:08;8.77;;;2.10;;
62256;SDS011;48240;52.962;5.790;2022-10-16T13:32:36;15.33;;;1.70;;
62256;SDS011;48240;52.962;5.790;2022-10-16T13:35:02;9.38;;;1.70;;
62256;SDS011;48240;52.962;5.790;2022-10-16T13:37:29;7.78;;;1.88;;
62256;SDS011;48240;52.962;5.790;2022-10-16T13:40:04;6.30;;;1.70;;
62256;SDS011;48240;52.962;5.790;2022-10-16T13:42:33;10.15;;;1.80;;
62256;SDS011;48240;52.962;5.790;2022-10-16T13:44:59;11.55;;;1.45;;
62256;SDS011;48240;52.962;5.790;2022-10-16T13:47:26;10.90;;;1.88;;
62256;SDS011;48240;52.962;5.790;2022-10-16T13:50:06;13.65;;;1.70;;
62256;SDS011;48240;52.962;5.790;2022-10-16T13:52:32;8.88;;;2.08;;
62256;SDS011;48240;52.962;5.790;2022-10-16T13:54:58;11.35;;;1.50;;
62256;SDS011;48240;52.962;5.790;2022-10-16T13:57:24;7.60;;;1.38;;
62256;SDS011;48240;52.962;5.790;2022-10-16T13:59:50;6.32;;;1.40;;
62256;SDS011;48240;52.962;5.790;2022-10-16T14:04:52;10.18;;;1.42;;
62256;SDS011;48240;52.962;5.790;2022-10-16T14:07:26;13.50;;;1.77;;
62256;SDS011;48240;52.962;5.790;2022-10-16T14:09:53;8.25;;;1.80;;
62256;SDS011;48240;52.962;5.790;2022-10-16T14:12:20;12.40;;;1.98;;
62256;SDS011;48240;52.962;5.790;2022-10-16T14:14:48;6.57;;;1.30;;
62256;SDS011;48240;52.962;5.790;2022-10-16T14:19:44;10.45;;;1.30;;
62256;SDS011;48240;52.962;5.790;2022-10-16T14:22:31;9.23;;;1.50;;
62256;SDS011;48240;52.962;5.790;2022-10-16T14:24:58;7.25;;;1.58;;
62256;SDS011;48240;52.962;5.790;2022-10-16T14:27:32;11.45;;;1.63;;
62256;SDS011;48240;52.962;5.790;2022-10-16T14:32:34;8.52;;;1.50;;
62256;SDS011;48240;52.962;5.790;2022-10-16T14:35:00;6.32;;;1.20;;
62256;SDS011;48240;52.962;5.790;2022-10-16T14:37:27;8.90;;;1.60;;
62256;SDS011;48240;52.962;5.790;2022-10-16T14:39:54;7.78;;;1.33;;
62256;SDS011;48240;52.962;5.790;2022-10-16T14:42:22;7.70;;;1.35;;
62256;SDS011;48240;52.962;5.790;2022-10-16T14:44:50;9.48;;;1.88;;
62256;SDS011;48240;52.962;5.790;2022-10-16T14:47:20;5.88;;;1.40;;
62256;SDS011;48240;52.962;5.790;2022-10-16T14:49:49;11.40;;;1.53;;
62256;SDS011;48240;52.962;5.790;2022-10-16T14:52:15;6.15;;;1.35;;
62256;SDS011;48240;52.962;5.790;2022-10-16T14:54:42;9.68;;;1.67;;
62256;SDS011;48240;52.962;5.790;2022-10-16T14:57:15;5.93;;;1.33;;
62256;SDS011;48240;52.962;5.790;2022-10-16T14:59:42;9.05;;;1.77;;
62256;SDS011;48240;52.962;5.790;2022-10-16T15:02:21;10.65;;;1.65;;
62256;SDS011;48240;52.962;5.790;2022-10-16T15:04:48;8.10;;;1.20;;
62256;SDS011;48240;52.962;5.790;2022-10-16T15:07:15;9.63;;;1.55;;
62256;SDS011;48240;52.962;5.790;2022-10-16T15:09:41;8.75;;;1.85;;
62256;SDS011;48240;52.962;5.790;2022-10-16T15:12:07;6.85;;;1.10;;
62256;SDS011;48240;52.962;5.790;2022-10-16T15:14:33;6.45;;;1.30;;
62256;SDS011;48240;52.962;5.790;2022-10-16T15:16:59;8.60;;;1.58;;
62256;SDS011;48240;52.962;5.790;2022-10-16T15:19:26;8.38;;;1.50;;
62256;SDS011;48240;52.962;5.790;2022-10-16T15:21:52;6.50;;;1.42;;
62256;SDS011;48240;52.962;5.790;2022-10-16T15:24:18;7.03;;;1.60;;
62256;SDS011;48240;52.962;5.790;2022-10-16T15:26:44;10.88;;;4.05;;
62256;SDS011;48240;52.962;5.790;2022-10-16T15:29:14;21.15;;;7.10;;
62256;SDS011;48240;52.962;5.790;2022-10-16T15:31:40;16.92;;;5.25;;
62256;SDS011;48240;52.962;5.790;2022-10-16T15:34:12;15.02;;;5.22;;
62256;SDS011;48240;52.962;5.790;2022-10-16T15:36:38;14.68;;;3.97;;
62256;SDS011;48240;52.962;5.790;2022-10-16T15:39:05;14.25;;;4.00;;
62256;SDS011;48240;52.962;5.790;2022-10-16T15:41:36;14.52;;;4.10;;
62256;SDS011;48240;52.962;5.790;2022-10-16T15:44:02;16.17;;;3.67;;
62256;SDS011;48240;52.962;5.790;2022-10-16T15:46:28;16.00;;;3.47;;
62256;SDS011;48240;52.962;5.790;2022-10-16T15:48:56;14.27;;;3.67;;
62256;SDS011;48240;52.962;5.790;2022-10-16T15:51:23;12.70;;;3.60;;
62256;SDS011;48240;52.962;5.790;2022-10-16T15:53:49;13.05;;;3.33;;
62256;SDS011;48240;52.962;5.790;2022-10-16T15:56:17;11.20;;;3.55;;
62256;SDS011;48240;52.962;5.790;2022-10-16T15:58:43;12.10;;;3.28;;
62256;SDS011;48240;52.962;5.790;2022-10-16T16:01:09;20.42;;;3.95;;
62256;SDS011;48240;52.962;5.790;2022-10-16T16:03:37;8.23;;;2.53;;
62256;SDS011;48240;52.962;5.790;2022-10-16T16:06:06;13.07;;;2.80;;
62256;SDS011;48240;52.962;5.790;2022-10-16T16:08:33;13.95;;;3.22;;
62256;SDS011;48240;52.962;5.790;2022-10-16T16:13:26;16.23;;;3.20;;
62256;SDS011;48240;52.962;5.790;2022-10-16T16:15:52;12.68;;;3.30;;
62256;SDS011;48240;52.962;5.790;2022-10-16T16:18:18;19.95;;;3.25;;
62256;SDS011;48240;52.962;5.790;2022-10-16T16:20:44;27.05;;;3.13;;
62256;SDS011;48240;52.962;5.790;2022-10-16T16:23:10;14.85;;;3.47;;
62256;SDS011;48240;52.962;5.790;2022-10-16T16:25:36;13.82;;;3.47;;
62256;SDS011;48240;52.962;5.790;2022-10-16T16:28:02;19.35;;;2.95;;
62256;SDS011;48240;52.962;5.790;2022-10-16T16:30:28;15.02;;;3.22;;
62256;SDS011;48240;52.962;5.790;2022-10-16T16:32:54;19.13;;;2.97;;
62256;SDS011;48240;52.962;5.790;2022-10-16T16:35:20;9.77;;;2.70;;
62256;SDS011;48240;52.962;5.790;2022-10-16T16:37:47;12.32;;;2.58;;
62256;SDS011;48240;52.962;5.790;2022-10-16T16:40:13;13.65;;;3.20;;
62256;SDS011;48240;52.962;5.790;2022-10-16T16:42:39;10.82;;;2.70;;
62256;SDS011;48240;52.962;5.790;2022-10-16T16:45:05;11.63;;;2.38;;
62256;SDS011;48240;52.962;5.790;2022-10-16T16:47:32;12.00;;;2.42;;
62256;SDS011;48240;52.962;5.790;2022-10-16T16:49:58;11.55;;;2.55;;
62256;SDS011;48240;52.962;5.790;2022-10-16T16:52:24;12.10;;;2.50;;
62256;SDS011;48240;52.962;5.790;2022-10-16T16:54:50;10.85;;;2.38;;
62256;SDS011;48240;52.962;5.790;2022-10-16T16:57:19;15.75;;;2.50;;
62256;SDS011;48240;52.962;5.790;2022-10-16T16:59:46;12.38;;;2.55;;
62256;SDS011;48240;52.962;5.790;2022-10-16T17:02:12;9.23;;;2.53;;
62256;SDS011;48240;52.962;5.790;2022-10-16T17:04:38;11.00;;;2.92;;
62256;SDS011;48240;52.962;5.790;2022-10-16T17:07:04;9.93;;;2.30;;
62256;SDS011;48240;52.962;5.790;2022-10-16T17:09:31;12.75;;;2.47;;
62256;SDS011;48240;52.962;5.790;2022-10-16T17:11:57;7.50;;;2.30;;
62256;SDS011;48240;52.962;5.790;2022-10-16T17:14:23;13.30;;;2.50;;
62256;SDS011;48240;52.962;5.790;2022-10-16T17:16:49;8.25;;;2.13;;
62256;SDS011;48240;52.962;5.790;2022-10-16T17:19:17;11.02;;;2.42;;
62256;SDS011;48240;52.962;5.790;2022-10-16T17:21:44;11.82;;;2.45;;
62256;SDS011;48240;52.962;5.790;2022-10-16T17:24:10;9.63;;;2.10;;
62256;SDS011;48240;52.962;5.790;2022-10-16T17:26:36;14.63;;;3.33;;
62256;SDS011;48240;52.962;5.790;2022-10-16T17:29:05;18.48;;;3.08;;
62256;SDS011;48240;52.962;5.790;2022-10-16T17:31:35;13.90;;;3.20;;
62256;SDS011;48240;52.962;5.790;2022-10-16T17:34:02;11.30;;;2.42;;
62256;SDS011;48240;52.962;5.790;2022-10-16T17:36:29;7.85;;;2.10;;
62256;SDS011;48240;52.962;5.790;2022-10-16T17:38:58;9.55;;;2.40;;
62256;SDS011;48240;52.962;5.790;2022-10-16T17:41:26;8.23;;;2.20;;
62256;SDS011;48240;52.962;5.790;2022-10-16T17:43:52;7.03;;;1.95;;
62256;SDS011;48240;52.962;5.790;2022-10-16T17:46:19;11.68;;;2.45;;
62256;SDS011;48240;52.962;5.790;2022-10-16T17:48:46;9.32;;;2.60;;
62256;SDS011;48240;52.962;5.790;2022-10-16T17:51:15;11.63;;;2.55;;
62256;SDS011;48240;52.962;5.790;2022-10-16T17:53:41;12.85;;;2.75;;
62256;SDS011;48240;52.962;5.790;2022-10-16T17:56:12;15.30;;;6.53;;
62256;SDS011;48240;52.962;5.790;2022-10-16T17:58:39;17.35;;;6.10;;
62256;SDS011;48240;52.962;5.790;2022-10-16T18:01:16;24.08;;;9.32;;
62256;SDS011;48240;52.962;5.790;2022-10-16T18:03:42;23.05;;;9.80;;
62256;SDS011;48240;52.962;5.790;2022-10-16T18:06:08;25.48;;;8.50;;
62256;SDS011;48240;52.962;5.790;2022-10-16T18:08:37;28.83;;;8.63;;
62256;SDS011;48240;52.962;5.790;2022-10-16T18:11:03;22.10;;;8.48;;
62256;SDS011;48240;52.962;5.790;2022-10-16T18:13:30;20.77;;;7.45;;
62256;SDS011;48240;52.962;5.790;2022-10-16T18:16:14;16.23;;;6.75;;
62256;SDS011;48240;52.962;5.790;2022-10-16T18:18:41;13.07;;;6.43;;
62256;SDS011;48240;52.962;5.790;2022-10-16T18:21:10;16.40;;;5.90;;
62256;SDS011;48240;52.962;5.790;2022-10-16T18:23:36;12.63;;;6.05;;
62256;SDS011;48240;52.962;5.790;2022-10-16T18:26:04;13.10;;;6.13;;
62256;SDS011;48240;52.962;5.790;2022-10-16T18:28:30;15.50;;;6.00;;
62256;SDS011;48240;52.962;5.790;2022-10-16T18:31:00;11.60;;;5.30;;
62256;SDS011;48240;52.962;5.790;2022-10-16T18:33:27;13.77;;;5.85;;
62256;SDS011;48240;52.962;5.790;2022-10-16T18:35:55;12.52;;;5.55;;
62256;SDS011;48240;52.962;5.790;2022-10-16T18:38:21;14.45;;;5.45;;
62256;SDS011;48240;52.962;5.790;2022-10-16T18:40:47;12.13;;;5.30;;
62256;SDS011;48240;52.962;5.790;2022-10-16T18:43:13;11.15;;;5.53;;
62256;SDS011;48240;52.962;5.790;2022-10-16T18:45:39;15.57;;;5.97;;
62256;SDS011;48240;52.962;5.790;2022-10-16T18:48:06;13.73;;;5.45;;
62256;SDS011;48240;52.962;5.790;2022-10-16T18:50:33;13.35;;;5.28;;
62256;SDS011;48240;52.962;5.790;2022-10-16T18:52:59;17.02;;;5.75;;
62256;SDS011;48240;52.962;5.790;2022-10-16T18:55:25;14.18;;;6.20;;
62256;SDS011;48240;52.962;5.790;2022-10-16T18:57:53;11.98;;;6.00;;
62256;SDS011;48240;52.962;5.790;2022-10-16T19:00:19;18.88;;;6.72;;
62256;SDS011;48240;52.962;5.790;2022-10-16T19:02:45;15.40;;;6.97;;
62256;SDS011;48240;52.962;5.790;2022-10-16T19:05:11;12.60;;;6.00;;
62256;SDS011;48240;52.962;5.790;2022-10-16T19:07:37;18.05;;;5.80;;
62256;SDS011;48240;52.962;5.790;2022-10-16T19:10:03;13.93;;;6.53;;
62256;SDS011;48240;52.962;5.790;2022-10-16T19:12:30;16.65;;;6.25;;
62256;SDS011;48240;52.962;5.790;2022-10-16T19:14:56;17.45;;;6.30;;
62256;SDS011;48240;52.962;5.790;2022-10-16T19:17:22;15.48;;;7.55;;
62256;SDS011;48240;52.962;5.790;2022-10-16T19:19:48;26.45;;;7.85;;
62256;SDS011;48240;52.962;5.790;2022-10-16T19:22:14;20.98;;;7.93;;
62256;SDS011;48240;52.962;5.790;2022-10-16T19:24:54;15.23;;;6.82;;
62256;SDS011;48240;52.962;5.790;2022-10-16T19:27:20;15.68;;;6.93;;
62256;SDS011;48240;52.962;5.790;2022-10-16T19:29:46;17.55;;;8.32;;
62256;SDS011;48240;52.962;5.790;2022-10-16T19:32:13;18.48;;;8.05;;
62256;SDS011;48240;52.962;5.790;2022-10-16T19:34:39;17.90;;;8.18;;
62256;SDS011;48240;52.962;5.790;2022-10-16T19:37:05;16.65;;;7.55;;
62256;SDS011;48240;52.962;5.790;2022-10-16T19:39:31;18.70;;;7.55;;
62256;SDS011;48240;52.962;5.790;2022-10-16T19:41:57;18.95;;;7.45;;
62256;SDS011;48240;52.962;5.790;2022-10-16T19:44:23;16.10;;;7.30;;
62256;SDS011;48240;52.962;5.790;2022-10-16T19:46:50;15.50;;;6.90;;
62256;SDS011;48240;52.962;5.790;2022-10-16T19:49:17;16.05;;;6.47;;
62256;SDS011;48240;52.962;5.790;2022-10-16T19:51:49;12.93;;;6.40;;
62256;SDS011;48240;52.962;5.790;2022-10-16T19:54:16;11.17;;;6.27;;
62256;SDS011;48240;52.962;5.790;2022-10-16T19:56:42;14.70;;;7.32;;
62256;SDS011;48240;52.962;5.790;2022-10-16T19:59:08;15.82;;;7.40;;
62256;SDS011;48240;52.962;5.790;2022-10-16T20:01:37;13.48;;;6.45;;
62256;SDS011;48240;52.962;5.790;2022-10-16T20:04:03;16.73;;;6.10;;
62256;SDS011;48240;52.962;5.790;2022-10-16T20:06:29;18.42;;;6.95;;
62256;SDS011;48240;52.962;5.790;2022-10-16T20:08:55;11.30;;;5.53;;
62256;SDS011;48240;52.962;5.790;2022-10-16T20:11:28;11.48;;;5.88;;
62256;SDS011;48240;52.962;5.790;2022-10-16T20:13:54;13.20;;;6.30;;
62256;SDS011;48240;52.962;5.790;2022-10-16T20:16:20;16.48;;;6.28;;
62256;SDS011;48240;52.962;5.790;2022-10-16T20:18:47;14.30;;;6.10;;
62256;SDS011;48240;52.962;5.790;2022-10-16T20:21:17;14.27;;;6.25;;
62256;SDS011;48240;52.962;5.790;2022-10-16T20:23:44;16.13;;;5.97;;
62256;SDS011;48240;52.962;5.790;2022-10-16T20:26:12;13.88;;;6.07;;
62256;SDS011;48240;52.962;5.790;2022-10-16T20:28:39;11.48;;;5.55;;
62256;SDS011;48240;52.962;5.790;2022-10-16T20:31:09;12.45;;;5.30;;
62256;SDS011;48240;52.962;5.790;2022-10-16T20:33:36;12.23;;;5.35;;
62256;SDS011;48240;52.962;5.790;2022-10-16T20:36:02;12.85;;;5.47;;
62256;SDS011;48240;52.962;5.790;2022-10-16T20:38:29;14.52;;;5.38;;
62256;SDS011;48240;52.962;5.790;2022-10-16T20:40:55;13.88;;;5.53;;
62256;SDS011;48240;52.962;5.790;2022-10-16T20:43:21;12.90;;;5.20;;
62256;SDS011;48240;52.962;5.790;2022-10-16T20:45:47;12.57;;;5.10;;
62256;SDS011;48240;52.962;5.790;2022-10-16T20:48:23;13.20;;;5.03;;
62256;SDS011;48240;52.962;5.790;2022-10-16T20:50:50;13.20;;;5.25;;
62256;SDS011;48240;52.962;5.790;2022-10-16T20:53:16;11.75;;;5.25;;
62256;SDS011;48240;52.962;5.790;2022-10-16T20:55:42;13.07;;;5.10;;
62256;SDS011;48240;52.962;5.790;2022-10-16T20:58:08;10.77;;;4.90;;